Stations météo

Publicité
Chamonix, France (7469): Température de l'air & dewpoint: 16.08.2018 01:00:00 - 22.08.2018 01:00:00 (CEST)Chamonix, France (7469): Vitesse du vent & gusts: 16.08.2018 01:00:00 - 22.08.2018 01:00:00 (CEST)Chamonix, France (7469): Direction du vent: 16.08.2018 01:00:00 - 22.08.2018 01:00:00 (CEST)Chamonix, France (7469): Quantités de précipitations: 16.08.2018 01:00:00 - 22.08.2018 01:00:00 (CEST)
Date & Time tt [°C] td [°C] ff [km/h] ff [knt] fx [km/h] fx [knt] dd rr [mm]
22.08.2018 01:00:00 13,3 12,8 0 0 4 2 N 0,0
22.08.2018 00:00:00 14,1 13,6 0 0 4 2 N 0,0
21.08.2018 23:00:00 14,5 14,0 0 0 4 2 N 0,0
21.08.2018 22:00:00 14,7 14,2 0 0 4 2 N 0,0
21.08.2018 21:00:00 15,2 14,6 0 0 4 2 N 0,0
21.08.2018 20:00:00 15,8 15,2 2 1 11 6 SSW -
21.08.2018 19:00:00 15,9 15,1 0 0 8 4 N 1,0
21.08.2018 18:00:00 16,6 15,1 2 1 22 12 SW 3,0
21.08.2018 17:00:00 20,1 13,5 9 5 34 18 NNW 0,2
21.08.2018 16:00:00 26,2 13,3 5 3 26 14 S 0,0
21.08.2018 15:00:00 25,0 12,9 9 5 24 13 S 0,0
21.08.2018 14:00:00 26,7 13,1 4 2 13 7 S -
21.08.2018 13:00:00 22,7 14,3 2 1 11 6 S 0,0
21.08.2018 12:00:00 22,7 13,2 2 1 13 7 SW 0,0
21.08.2018 11:00:00 18,7 13,8 0 0 8 4 N 0,0
21.08.2018 10:00:00 14,0 13,8 2 1 5 3 ESE 0,0
21.08.2018 09:00:00 11,0 10,7 0 0 4 2 N 0,0
21.08.2018 08:00:00 10,5 10,2 0 0 4 2 N -
21.08.2018 07:00:00 10,4 9,9 0 0 4 2 N 0,0
21.08.2018 06:00:00 10,8 10,3 0 0 8 4 N 0,0
21.08.2018 05:00:00 11,2 10,6 0 0 4 2 N 0,0
21.08.2018 04:00:00 11,9 11,3 0 0 4 2 N 0,0
21.08.2018 03:00:00 12,1 11,3 0 0 5 3 N 0,0
21.08.2018 02:00:00 12,9 11,8 0 0 4 2 N -
21.08.2018 01:00:00 13,8 12,4 0 0 4 2 N 0,0
21.08.2018 00:00:00 14,9 13,1 0 0 5 3 N 0,0
20.08.2018 23:00:00 16,4 13,9 0 0 5 3 N 0,0
20.08.2018 22:00:00 17,1 14,4 2 1 8 4 E 0,0
20.08.2018 21:00:00 18,3 14,2 4 2 8 4 ENE 0,0
20.08.2018 20:00:00 21,9 14,3 2 1 15 8 WSW -
20.08.2018 19:00:00 23,4 13,0 4 2 22 12 SW 0,0
20.08.2018 18:00:00 24,5 13,4 4 2 21 11 SW 0,0
20.08.2018 17:00:00 26,0 13,8 8 4 21 11 SSW 0,0
20.08.2018 16:00:00 28,2 14,8 8 4 24 13 SW 0,0
20.08.2018 15:00:00 27,3 13,6 8 4 22 12 SW 0,0
20.08.2018 14:00:00 26,7 13,8 5 3 18 10 SSW -
20.08.2018 13:00:00 25,0 12,9 9 5 16 9 WSW 0,0
20.08.2018 12:00:00 23,0 12,9 4 2 9 5 SSW 0,0
20.08.2018 11:00:00 17,8 14,1 2 1 8 4 SE 0,0
20.08.2018 10:00:00 13,7 13,5 0 0 4 2 N 0,0
20.08.2018 09:00:00 10,7 10,4 0 0 4 2 N 0,0
20.08.2018 08:00:00 10,0 9,7 2 1 8 4 E -
20.08.2018 07:00:00 9,8 9,5 0 0 4 2 N 0,0
20.08.2018 06:00:00 10,1 9,6 0 0 8 4 N 0,0
20.08.2018 05:00:00 10,5 10,0 0 0 5 3 N 0,0
20.08.2018 04:00:00 11,2 10,7 4 2 8 4 E 0,0
20.08.2018 03:00:00 11,6 11,1 0 0 5 3 N 0,0
20.08.2018 02:00:00 12,1 11,5 2 1 4 2 ENE -
20.08.2018 01:00:00 12,6 11,8 0 0 4 2 N 0,0
20.08.2018 00:00:00 13,5 12,6 0 0 4 2 N 0,0
19.08.2018 23:00:00 14,5 13,2 0 0 4 2 N 0,0
19.08.2018 22:00:00 16,2 14,2 0 0 5 3 N 0,0
19.08.2018 21:00:00 18,1 15,4 0 0 4 2 N 0,0
19.08.2018 20:00:00 20,1 15,9 0 0 5 3 N -
19.08.2018 19:00:00 20,4 15,8 2 1 11 6 ENE 0,0
19.08.2018 18:00:00 22,6 12,2 4 2 29 16 S 0,0
19.08.2018 17:00:00 24,5 14,9 8 4 22 12 SW 0,0
19.08.2018 16:00:00 24,8 14,6 4 2 26 14 S 0,0
19.08.2018 15:00:00 27,3 14,0 9 5 29 16 WSW 0,0
19.08.2018 14:00:00 25,8 14,3 5 3 21 11 SW -
19.08.2018 13:00:00 24,5 13,7 5 3 15 8 WSW 0,0
19.08.2018 12:00:00 20,7 15,0 0 0 8 4 N 0,0
19.08.2018 11:00:00 15,5 15,3 2 1 5 3 ESE 0,0
19.08.2018 10:00:00 13,7 13,5 0 0 4 2 N 0,0
19.08.2018 09:00:00 10,5 10,3 0 0 4 2 N 0,2
19.08.2018 08:00:00 9,9 9,6 0 0 4 2 N -
19.08.2018 07:00:00 9,8 9,5 0 0 2 1 N 0,0
19.08.2018 06:00:00 10,1 9,8 0 0 4 2 N 0,0
19.08.2018 05:00:00 10,7 10,4 0 0 4 2 N 0,0
19.08.2018 04:00:00 11,3 10,8 0 0 4 2 N 0,0
19.08.2018 03:00:00 11,9 11,4 0 0 4 2 N 0,0
19.08.2018 02:00:00 12,5 12,0 0 0 4 2 N -
19.08.2018 01:00:00 13,4 12,9 0 0 4 2 N 0,0
19.08.2018 00:00:00 14,1 13,5 0 0 8 4 N 0,0
18.08.2018 23:00:00 14,9 14,1 0 0 4 2 N 0,0
18.08.2018 22:00:00 15,9 15,1 0 0 0 0 N 0,4
18.08.2018 21:00:00 16,7 15,4 0 0 11 6 N 1,0
18.08.2018 20:00:00 17,9 14,8 4 2 13 7 NNE -
18.08.2018 19:00:00 19,0 15,1 4 2 21 11 WSW 0,2
18.08.2018 18:00:00 21,9 13,3 5 3 18 10 SSW 0,0
18.08.2018 17:00:00 23,3 12,9 4 2 18 10 S 0,0
18.08.2018 16:00:00 24,0 14,4 5 3 21 11 S 0,0
18.08.2018 15:00:00 25,3 13,5 8 4 24 13 SW 0,0
18.08.2018 14:00:00 24,0 12,6 8 4 18 10 SW -
18.08.2018 13:00:00 22,6 13,6 5 3 16 9 WSW 0,0
18.08.2018 12:00:00 20,8 13,3 4 2 13 7 WSW 0,0
18.08.2018 11:00:00 16,0 14,2 4 2 9 5 ESE 0,0
18.08.2018 10:00:00 12,6 12,4 0 0 5 3 N 0,0
18.08.2018 09:00:00 9,8 9,5 0 0 4 2 N 0,0
18.08.2018 08:00:00 9,2 8,9 0 0 2 1 N -
18.08.2018 07:00:00 9,2 8,9 0 0 4 2 N 0,0
18.08.2018 06:00:00 9,6 9,1 2 1 4 2 NNE 0,2
18.08.2018 05:00:00 10,2 9,7 0 0 4 2 N 0,0
18.08.2018 04:00:00 10,4 9,9 0 0 4 2 N 0,0
18.08.2018 03:00:00 10,7 10,2 0 0 4 2 N 0,0
18.08.2018 02:00:00 11,4 10,9 0 0 5 3 N -
18.08.2018 01:00:00 11,7 10,9 0 0 4 2 N 0,0
18.08.2018 00:00:00 12,6 11,7 0 0 4 2 N 0,0
17.08.2018 23:00:00 13,3 12,5 4 2 8 4 E 0,0
17.08.2018 22:00:00 13,7 12,4 0 0 4 2 N 0,0
17.08.2018 21:00:00 14,9 13,1 2 1 5 3 NE 0,0
17.08.2018 20:00:00 16,5 13,8 2 1 5 3 NE -
17.08.2018 19:00:00 19,2 13,8 0 0 8 4 N 0,0
17.08.2018 18:00:00 19,7 14,5 0 0 13 7 N 0,0
17.08.2018 17:00:00 21,0 15,3 2 1 11 6 ENE 0,0
17.08.2018 16:00:00 18,1 16,1 4 2 22 12 SE 1,0
17.08.2018 15:00:00 19,9 13,1 9 5 34 18 S 0,0
17.08.2018 14:00:00 24,0 14,1 8 4 24 13 SSW -
17.08.2018 13:00:00 24,6 12,5 4 2 18 10 SSE 0,0
17.08.2018 12:00:00 22,1 12,9 4 2 16 9 S 0,0
17.08.2018 11:00:00 20,2 12,4 0 0 5 3 N 0,0
17.08.2018 10:00:00 14,8 14,5 0 0 5 3 N 0,0
17.08.2018 09:00:00 12,1 11,8 0 0 5 3 N 0,0
17.08.2018 08:00:00 11,5 11,2 2 1 5 3 E -
17.08.2018 07:00:00 10,3 9,8 0 0 4 2 N 0,0
17.08.2018 06:00:00 10,8 10,3 0 0 4 2 N 0,0
17.08.2018 05:00:00 11,3 10,7 0 0 4 2 N 0,0
17.08.2018 04:00:00 11,7 11,1 0 0 4 2 N 0,0
17.08.2018 03:00:00 12,3 11,4 0 0 4 2 N 0,0
17.08.2018 02:00:00 13,2 12,3 0 0 4 2 N -
17.08.2018 01:00:00 13,8 12,5 0 0 8 4 N 0,0
17.08.2018 00:00:00 14,4 12,9 0 0 5 3 N 0,0
16.08.2018 23:00:00 15,2 12,9 0 0 4 2 N 0,0
16.08.2018 22:00:00 16,5 13,6 0 0 5 3 N 0,0
16.08.2018 21:00:00 18,9 12,6 4 2 8 4 N 0,0
16.08.2018 20:00:00 22,0 12,3 4 2 16 9 S -
16.08.2018 19:00:00 23,6 11,9 4 2 28 15 SW 0,0
16.08.2018 18:00:00 24,8 12,4 11 6 26 14 W 0,0
16.08.2018 17:00:00 27,9 12,3 8 4 24 13 SSW 0,0
16.08.2018 16:00:00 27,5 12,7 5 3 22 12 S 0,0
16.08.2018 15:00:00 27,2 13,2 8 4 22 12 S 0,0
16.08.2018 14:00:00 26,8 12,8 8 4 22 12 S -
16.08.2018 13:00:00 25,8 13,3 5 3 18 10 S 0,0
16.08.2018 12:00:00 22,6 12,2 2 1 5 3 SSE 0,0
16.08.2018 11:00:00 16,4 12,0 0 0 5 3 N 0,0
16.08.2018 10:00:00 12,6 12,4 0 0 5 3 N 0,2
16.08.2018 09:00:00 9,0 8,9 0 0 2 1 N 0,0
16.08.2018 08:00:00 8,5 8,2 0 0 2 1 N -
16.08.2018 07:00:00 8,1 7,8 2 1 4 2 NNE 0,0
16.08.2018 06:00:00 8,6 8,3 0 0 2 1 N 0,0
16.08.2018 05:00:00 8,9 8,6 0 0 4 2 N 0,0
16.08.2018 04:00:00 9,5 9,0 0 0 4 2 N 0,0
16.08.2018 03:00:00 10,0 9,5 0 0 4 2 N 0,0
16.08.2018 02:00:00 10,7 10,2 0 0 5 3 N -
16.08.2018 01:00:00 11,3 10,7 0 0 4 2 N 0,0

tt = Température de l'air
td = dewpoint
ff = Vitesse du vent
fx = gusts
dd = Direction du vent
rr = Quantités de précipitations

stations d'obs. à proximité